Time;durP1;ratioP1;P1;durP2;ratioP2;P2;SDS_P1;SDS_P2;PMS_P1;PMS_P2;Temp;Humidity;BMP_temperature;BMP_pressure;BME280_temperature;BME280_humidity;BME280_pressure;Samples;Min_cycle;Max_cycle;Signal;HPM_P1;HPM_P2
2022/10/18 00:00:29;;;;;;;7.75;4.75;;;;;;;5.19;76.72;101114.44;4938175;28;20023;-91
2022/10/18 00:02:55;;;;;;;10.20;4.78;;;;;;;5.15;76.70;101112.34;4942636;28;20026;-90
2022/10/18 00:05:20;;;;;;;9.52;5.05;;;;;;;5.02;76.93;101100.53;4926306;28;20066;-91
2022/10/18 00:07:46;;;;;;;7.72;4.85;;;;;;;4.96;77.00;101111.09;4926802;28;20030;-91
2022/10/18 00:10:11;;;;;;;8.35;5.05;;;;;;;4.91;77.22;101097.50;4926517;28;20092;-91
2022/10/18 00:12:37;;;;;;;10.23;5.30;;;;;;;4.91;77.82;101111.66;4926379;28;20038;-91
2022/10/18 00:15:03;;;;;;;8.50;5.45;;;;;;;4.90;77.84;101114.53;4942702;28;20027;-91
2022/10/18 00:17:28;;;;;;;7.72;4.75;;;;;;;4.91;78.25;101116.19;4942777;28;20058;-90
2022/10/18 00:19:54;;;;;;;5.88;4.57;;;;;;;4.79;77.92;101097.16;4926490;28;20061;-90
2022/10/18 00:22:19;;;;;;;8.55;5.53;;;;;;;4.83;77.15;101098.44;4926300;28;20018;-91
2022/10/18 00:24:45;;;;;;;8.45;5.22;;;;;;;4.90;78.20;101114.53;4942408;28;20034;-91
2022/10/18 00:27:10;;;;;;;8.18;5.65;;;;;;;4.85;78.76;101102.56;4926383;28;20027;-91
2022/10/18 00:29:36;;;;;;;9.85;5.15;;;;;;;4.84;78.51;101095.59;4946448;28;20041;-90
2022/10/18 00:32:01;;;;;;;7.30;4.82;;;;;;;4.82;78.30;101099.47;4925969;28;20031;-91
2022/10/18 00:34:27;;;;;;;9.73;4.82;;;;;;;4.85;77.90;101105.22;4925938;28;20027;-90
2022/10/18 00:36:53;;;;;;;8.85;5.28;;;;;;;4.82;78.35;101100.28;4942312;28;20050;-91
2022/10/18 00:39:19;;;;;;;8.18;4.68;;;;;;;4.81;76.89;101093.28;4946121;28;20037;-90
2022/10/18 00:41:45;;;;;;;6.75;4.63;;;;;;;4.77;77.97;101086.69;4927315;28;20031;-90
2022/10/18 00:44:10;;;;;;;8.65;5.68;;;;;;;4.90;78.16;101107.38;4941984;28;20026;-91
2022/10/18 00:46:43;;;;;;;9.13;5.22;;;;;;;4.74;77.38;101088.91;4957678;28;20464;-91
2022/10/18 00:49:17;;;;;;;7.95;4.68;;;;;;;4.77;76.97;101091.19;4961617;28;20552;-90
2022/10/18 00:51:50;;;;;;;8.77;4.85;;;;;;;4.74;77.25;101091.56;4927626;28;20117;-91
2022/10/18 00:54:15;;;;;;;8.05;4.68;;;;;;;4.67;77.22;101080.81;4926105;28;20034;-91
2022/10/18 00:56:43;;;;;;;7.30;5.00;;;;;;;4.65;77.35;101075.66;4944720;28;20473;-90
2022/10/18 00:59:09;;;;;;;8.60;4.88;;;;;;;4.68;77.30;101073.66;4945557;28;20030;-91
2022/10/18 01:01:34;;;;;;;6.95;4.43;;;;;;;4.69;77.00;101075.28;4925227;29;20520;-91
2022/10/18 01:04:00;;;;;;;7.55;4.45;;;;;;;4.74;77.97;101078.22;4938781;29;20034;-90
2022/10/18 01:06:27;;;;;;;10.02;4.55;;;;;;;4.74;77.53;101065.72;4980932;28;20034;-91
2022/10/18 01:09:11;;;;;;;7.13;4.90;;;;;;;4.92;77.42;101083.97;4925640;28;20414;-91
2022/10/18 01:11:48;;;;;;;9.10;4.88;;;;;;;5.04;77.75;101089.63;4957252;28;20032;-90
2022/10/18 01:14:34;;;;;;;6.55;4.28;;;;;;;5.22;78.28;101079.34;4956484;28;20108;-89
2022/10/18 01:17:28;;;;;;;7.60;4.70;;;;;;;5.23;76.92;101072.19;4940979;28;20042;-90
2022/10/18 01:20:32;;;;;;;6.95;4.47;;;;;;;5.24;76.82;101082.66;4940616;28;20054;-91
2022/10/18 01:23:07;;;;;;;8.90;4.95;;;;;;;5.07;77.42;101060.72;4941262;28;20493;-91
2022/10/18 01:25:48;;;;;;;7.03;4.03;;;;;;;5.20;77.31;101052.00;4957033;28;20448;-91
2022/10/18 01:28:32;;;;;;;5.72;3.70;;;;;;;5.44;76.79;101069.47;4926383;28;20085;-91
2022/10/18 01:31:02;;;;;;;7.90;4.40;;;;;;;5.13;77.08;101050.31;4957108;28;20418;-94
2022/10/18 01:33:30;;;;;;;10.52;4.57;;;;;;;5.16;77.30;101049.91;4926626;28;20034;-94
2022/10/18 01:36:08;;;;;;;8.27;4.90;;;;;;;5.04;75.97;101050.44;4926666;28;20056;-94
2022/10/18 01:38:34;;;;;;;6.30;4.22;;;;;;;4.84;75.30;101039.53;4926885;28;20045;-94
2022/10/18 01:40:59;;;;;;;7.05;4.00;;;;;;;4.78;76.10;101042.16;4925941;28;20474;-94
2022/10/18 01:43:25;;;;;;;6.60;4.07;;;;;;;4.76;75.63;101045.00;4926053;28;20026;-94
2022/10/18 01:45:51;;;;;;;7.20;4.50;;;;;;;4.69;75.88;101044.13;4926078;28;20469;-93
2022/10/18 01:48:17;;;;;;;7.15;4.22;;;;;;;4.85;76.99;101029.69;4926017;28;20038;-93
2022/10/18 01:50:42;;;;;;;6.05;3.95;;;;;;;5.17;76.47;101040.91;4929255;28;20037;-94
2022/10/18 01:53:25;;;;;;;5.50;4.05;;;;;;;5.28;76.20;101058.25;4944494;28;20023;-93
2022/10/18 01:55:56;;;;;;;6.63;4.32;;;;;;;5.20;76.18;101040.50;4934612;28;20080;-93
2022/10/18 01:58:33;;;;;;;6.25;4.30;;;;;;;5.19;76.58;101057.56;4926300;28;20081;-94
2022/10/18 02:01:13;;;;;;;6.47;4.15;;;;;;;4.97;76.72;101040.69;4926783;28;20026;-94
2022/10/18 02:03:40;;;;;;;7.43;4.43;;;;;;;4.88;77.01;101031.16;4926251;28;20489;-95
2022/10/18 02:06:09;;;;;;;6.25;4.50;;;;;;;5.02;76.78;101054.28;4926344;28;20041;-94
2022/10/18 02:08:43;;;;;;;11.82;4.70;;;;;;;5.01;76.80;101047.31;4956687;28;20054;-94
2022/10/18 02:11:09;;;;;;;6.70;4.10;;;;;;;4.89;77.23;101040.81;4926043;28;20486;-93
2022/10/18 02:13:57;;;;;;;7.60;4.97;;;;;;;4.91;76.62;101052.94;4925707;28;20030;-94
2022/10/18 02:16:44;;;;;;;7.47;4.53;;;;;;;4.80;76.61;101048.13;4941648;28;20038;-94
2022/10/18 02:19:16;;;;;;;7.28;4.18;;;;;;;4.63;76.21;101034.19;4959872;28;20045;-94
2022/10/18 02:21:42;;;;;;;6.45;4.28;;;;;;;4.48;76.39;101022.72;4926310;28;20146;-93
2022/10/18 02:24:09;;;;;;;8.55;4.07;;;;;;;4.51;76.06;101041.03;4925612;28;20018;-94
2022/10/18 02:26:34;;;;;;;7.88;4.20;;;;;;;4.31;75.99;101025.59;4927878;28;20034;-94
2022/10/18 02:29:00;;;;;;;11.85;4.78;;;;;;;4.40;76.47;101043.16;4945246;28;20049;-93
2022/10/18 02:31:31;;;;;;;5.90;4.10;;;;;;;4.34;76.18;101043.09;4929195;28;20070;-94
2022/10/18 02:33:58;;;;;;;6.00;3.90;;;;;;;4.37;76.41;101061.38;4929361;28;20449;-94
2022/10/18 02:36:41;;;;;;;9.95;5.32;;;;;;;4.29;76.60;101054.28;4944872;28;20082;-94
2022/10/18 02:39:13;;;;;;;8.43;4.68;;;;;;;4.19;77.11;101043.94;4945082;28;20042;-94
2022/10/18 02:41:38;;;;;;;8.15;5.47;;;;;;;4.03;77.04;101028.13;4945825;28;20058;-93
2022/10/18 02:44:04;;;;;;;6.97;5.03;;;;;;;4.02;77.31;101034.44;4929453;28;20039;-94
2022/10/18 02:46:29;;;;;;;8.68;5.45;;;;;;;4.13;77.56;101044.66;4928760;28;20103;-94
2022/10/18 02:48:54;;;;;;;8.05;5.43;;;;;;;4.07;77.13;101050.72;4929212;28;20030;-94
2022/10/18 02:51:20;;;;;;;8.27;4.88;;;;;;;3.94;77.64;101035.34;4928978;28;20027;-93
2022/10/18 02:53:45;;;;;;;8.18;5.47;;;;;;;3.88;77.28;101029.94;4929077;28;20034;-94
2022/10/18 02:56:11;;;;;;;6.82;4.75;;;;;;;3.98;77.71;101043.81;4928836;28;20022;-94
2022/10/18 02:58:36;;;;;;;8.95;4.78;;;;;;;3.94;77.49;101027.38;4928883;28;20027;-94
2022/10/18 03:01:02;;;;;;;8.98;5.13;;;;;;;3.91;77.91;101030.41;4944512;28;20027;-93
2022/10/18 03:03:27;;;;;;;11.35;5.60;;;;;;;3.83;77.46;101022.50;4928955;28;20027;-93
2022/10/18 03:05:53;;;;;;;8.02;4.60;;;;;;;4.01;77.77;101046.94;4928353;28;20473;-93
2022/10/18 03:08:18;;;;;;;7.80;4.80;;;;;;;3.95;77.50;101037.03;4928787;28;20054;-93
2022/10/18 03:10:44;;;;;;;8.63;4.93;;;;;;;3.85;77.84;101026.63;4928676;28;20042;-93
2022/10/18 03:13:10;;;;;;;7.47;5.22;;;;;;;3.95;77.30;101036.22;4928730;28;20034;-93
2022/10/18 03:15:35;;;;;;;7.32;5.07;;;;;;;3.82;77.74;101032.34;4925009;29;20173;-93
2022/10/18 03:18:01;;;;;;;9.13;5.55;;;;;;;3.91;77.97;101050.91;4941307;29;20027;-93
2022/10/18 03:20:29;;;;;;;8.75;4.43;;;;;;;3.83;77.22;101039.31;4941244;29;20031;-93
2022/10/18 03:22:54;;;;;;;6.75;4.50;;;;;;;3.80;77.25;101045.03;4925336;29;20023;-93
2022/10/18 03:25:20;;;;;;;7.45;4.90;;;;;;;3.77;77.37;101048.03;4940649;29;20038;-93
2022/10/18 03:27:45;;;;;;;9.90;4.70;;;;;;;3.69;77.36;101039.31;4925353;29;20031;-94
2022/10/18 03:30:12;;;;;;;5.95;4.38;;;;;;;3.59;77.64;101032.41;4940845;29;20035;-94
2022/10/18 03:32:37;;;;;;;6.68;4.78;;;;;;;3.73;77.42;101040.59;4940421;29;20139;-93
2022/10/18 03:35:04;;;;;;;7.85;4.53;;;;;;;3.69;77.48;101023.31;4941158;29;20058;-94
2022/10/18 03:37:30;;;;;;;9.18;5.00;;;;;;;3.73;77.58;101037.94;4940438;29;20031;-94
2022/10/18 03:39:55;;;;;;;5.70;4.22;;;;;;;3.73;77.54;101028.09;4940569;29;20063;-94
2022/10/18 03:42:21;;;;;;;7.10;4.95;;;;;;;4.12;76.90;101036.84;4940597;29;20086;-94
2022/10/18 03:44:46;;;;;;;6.97;3.60;;;;;;;4.31;76.76;101040.78;4940775;29;20039;-94
2022/10/18 03:47:13;;;;;;;5.40;3.53;;;;;;;4.50;76.30;101053.50;4940710;29;20031;-94
2022/10/18 03:49:38;;;;;;;5.78;3.58;;;;;;;4.40;76.32;101042.31;4925869;29;20035;-95
2022/10/18 03:52:04;;;;;;;7.28;3.88;;;;;;;4.18;76.29;101025.44;4940027;29;20035;-93
2022/10/18 03:54:29;;;;;;;9.40;5.07;;;;;;;4.15;76.95;101039.97;4940538;29;20027;-94
2022/10/18 03:56:55;;;;;;;9.40;6.00;;;;;;;4.11;77.29;101041.34;4940687;29;20027;-93
2022/10/18 03:59:21;;;;;;;9.35;5.95;;;;;;;4.03;76.51;101041.44;4940626;29;20027;-94
2022/10/18 04:01:47;;;;;;;6.72;4.82;;;;;;;3.98;76.79;101046.47;4939913;29;20407;-93
2022/10/18 04:04:13;;;;;;;10.38;5.07;;;;;;;3.81;76.84;101025.34;4940966;29;20031;-94
2022/10/18 04:06:38;;;;;;;8.95;4.88;;;;;;;3.73;76.40;101029.94;4940720;29;20031;-94
2022/10/18 04:09:04;;;;;;;9.45;5.18;;;;;;;3.64;76.32;101031.88;4940077;29;20051;-93
2022/10/18 04:11:29;;;;;;;8.35;5.72;;;;;;;3.48;76.94;101021.38;4959233;28;20035;-95
2022/10/18 04:13:55;;;;;;;8.43;5.45;;;;;;;3.53;76.95;101011.84;4943797;28;20378;-92
2022/10/18 04:16:20;;;;;;;11.02;5.70;;;;;;;3.64;76.22;101048.66;4928797;28;20031;-96
2022/10/18 04:18:46;;;;;;;10.13;5.68;;;;;;;3.48;75.94;101040.81;4928145;28;20067;-94
2022/10/18 04:21:11;;;;;;;11.15;5.50;;;;;;;3.40;76.17;101044.41;4943493;28;20037;-96
2022/10/18 04:23:37;;;;;;;7.82;5.28;;;;;;;3.21;76.42;101024.41;4929249;28;20022;-94
2022/10/18 04:26:02;;;;;;;8.60;5.28;;;;;;;3.13;76.62;101021.81;4932867;29;20090;-95
2022/10/18 04:28:28;;;;;;;11.95;6.57;;;;;;;3.07;77.06;101013.72;4939997;29;20027;-94
2022/10/18 04:30:53;;;;;;;9.23;6.00;;;;;;;3.22;77.12;101035.91;4940896;29;20035;-93
2022/10/18 04:33:19;;;;;;;11.98;7.47;;;;;;;3.05;76.95;101024.56;4935642;28;20070;-94
2022/10/18 04:35:45;;;;;;;9.18;5.90;;;;;;;3.08;76.81;101018.06;4930614;28;20515;-95
2022/10/18 04:38:10;;;;;;;82.45;12.27;;;;;;;2.99;77.14;101017.31;4936098;28;20117;-95
2022/10/18 04:40:36;;;;;;;20.50;7.18;;;;;;;2.96;77.62;101021.13;4943235;28;20035;-93
2022/10/18 04:43:01;;;;;;;10.48;5.93;;;;;;;2.96;77.49;101005.16;4924161;29;20023;-95
2022/10/18 04:45:27;;;;;;;17.17;7.75;;;;;;;2.93;78.04;101007.38;4946355;28;20117;-95
2022/10/18 04:47:52;;;;;;;20.63;8.05;;;;;;;3.21;77.88;101037.72;4936863;28;20037;-96
2022/10/18 04:50:18;;;;;;;19.45;10.55;;;;;;;3.27;78.27;101033.53;4943071;28;20038;-93
2022/10/18 04:52:46;;;;;;;21.30;6.80;;;;;;;3.30;77.92;101038.50;4964506;28;20034;-94
2022/10/18 04:55:12;;;;;;;11.65;6.90;;;;;;;3.28;78.15;101027.22;4948604;28;20026;-94
2022/10/18 04:57:37;;;;;;;16.48;6.60;;;;;;;3.26;77.73;101013.25;4947096;28;20416;-94
2022/10/18 05:00:08;;;;;;;14.05;6.72;;;;;;;3.37;77.09;101042.09;4947306;28;20034;-96
2022/10/18 05:02:34;;;;;;;19.20;8.10;;;;;;;3.38;76.88;101024.28;4967575;28;20037;-96
2022/10/18 05:04:59;;;;;;;15.15;7.03;;;;;;;3.44;75.92;101023.56;4948862;28;20034;-95
2022/10/18 05:07:25;;;;;;;14.57;7.60;;;;;;;3.39;76.04;101034.75;4926853;28;20035;-96
2022/10/18 05:09:50;;;;;;;21.90;6.55;;;;;;;3.25;76.29;101016.91;4927285;28;20510;-95
2022/10/18 05:12:18;;;;;;;15.32;6.80;;;;;;;3.34;75.97;101036.28;4927209;28;20073;-95
2022/10/18 05:14:44;;;;;;;21.23;9.95;;;;;;;3.24;76.70;101032.06;4946174;28;20042;-95
2022/10/18 05:17:09;;;;;;;12.52;7.43;;;;;;;3.50;76.43;101062.78;4922455;29;20043;-91
2022/10/18 05:19:35;;;;;;;11.40;7.20;;;;;;;3.43;76.46;101025.41;4939386;29;20035;-95
2022/10/18 05:22:00;;;;;;;11.13;6.82;;;;;;;3.60;75.79;101050.03;4906686;29;20125;-96
2022/10/18 05:24:29;;;;;;;10.70;6.53;;;;;;;3.60;76.46;101042.03;4926318;29;20050;-91
2022/10/18 05:26:55;;;;;;;11.23;7.40;;;;;;;3.53;75.90;101030.47;4923204;29;20054;-94
2022/10/18 05:29:25;;;;;;;17.67;5.53;;;;;;;3.65;75.29;101038.81;4923833;29;20036;-94
2022/10/18 05:31:50;;;;;;;12.30;5.60;;;;;;;3.76;75.12;101033.06;4919961;29;20051;-94
2022/10/18 05:34:19;;;;;;;9.77;6.32;;;;;;;3.71;75.23;101029.28;4908344;29;20024;-93
2022/10/18 05:36:45;;;;;;;60.03;27.50;;;;;;;3.92;75.20;101041.88;4908287;29;20426;-93
2022/10/18 05:39:10;;;;;;;10.88;6.90;;;;;;;4.00;75.66;101031.97;4907514;29;20031;-94
2022/10/18 05:41:36;;;;;;;14.77;6.32;;;;;;;4.07;74.55;101028.56;4910927;29;20466;-89
2022/10/18 05:44:03;;;;;;;13.13;5.90;;;;;;;4.09;74.58;101034.53;4922433;29;20110;-91
2022/10/18 05:46:29;;;;;;;11.57;6.30;;;;;;;4.25;74.47;101029.84;4903977;29;20031;-91
2022/10/18 05:49:01;;;;;;;9.77;5.93;;;;;;;4.30;75.06;101015.97;4921580;28;20145;-90
2022/10/18 05:51:30;;;;;;;8.43;5.43;;;;;;;4.41;74.22;101023.47;4959088;28;20042;-92
2022/10/18 05:53:56;;;;;;;11.55;6.10;;;;;;;4.59;74.15;101033.75;4968732;28;20034;-90
2022/10/18 05:56:21;;;;;;;12.70;6.32;;;;;;;4.69;74.88;101029.94;4967866;28;20042;-91
2022/10/18 05:58:51;;;;;;;7.72;5.80;;;;;;;4.79;74.05;101027.78;4957204;28;20823;-91
2022/10/18 06:01:17;;;;;;;11.07;6.68;;;;;;;4.90;74.12;101040.63;4953214;28;20054;-92
2022/10/18 06:03:42;;;;;;;10.13;5.93;;;;;;;5.06;73.86;101036.88;4945020;28;20081;-93
2022/10/18 06:06:09;;;;;;;9.18;6.20;;;;;;;5.07;73.08;101043.88;4938328;28;20030;-90
2022/10/18 06:08:35;;;;;;;11.20;6.47;;;;;;;5.22;73.55;101044.63;4964512;28;20054;-93
2022/10/18 06:11:08;;;;;;;11.73;6.13;;;;;;;5.29;72.77;101041.19;4955620;28;20042;-95
2022/10/18 06:13:41;;;;;;;9.30;6.35;;;;;;;5.39;72.01;101050.50;4943495;28;20034;-91
2022/10/18 06:16:07;;;;;;;14.05;6.00;;;;;;;5.36;72.52;101029.56;4948033;28;20189;-92
2022/10/18 06:18:36;;;;;;;11.40;6.57;;;;;;;5.54;71.95;101047.78;4945584;28;20498;-91
2022/10/18 06:21:01;;;;;;;12.00;6.90;;;;;;;5.57;72.84;101033.22;4929828;28;20037;-91
2022/10/18 06:23:27;;;;;;;31.52;7.60;;;;;;;5.62;72.74;101025.41;4945149;28;20478;-92
2022/10/18 06:25:52;;;;;;;13.48;6.90;;;;;;;5.81;71.99;101038.09;4928912;28;20034;-92
2022/10/18 06:28:18;;;;;;;30.77;8.85;;;;;;;5.98;72.26;101032.47;4941524;28;20109;-89
2022/10/18 06:30:43;;;;;;;17.98;7.88;;;;;;;6.18;70.81;101032.56;4930947;29;20090;-93
2022/10/18 06:33:10;;;;;;;15.65;6.50;;;;;;;6.26;70.64;101027.88;4943434;28;20030;-95
2022/10/18 06:35:36;;;;;;;16.35;7.40;;;;;;;6.42;70.51;101031.25;4930790;28;20035;-91
2022/10/18 06:38:02;;;;;;;11.38;7.20;;;;;;;6.48;70.21;101038.47;4934465;28;20022;-96
2022/10/18 06:40:29;;;;;;;16.65;8.15;;;;;;;6.48;70.98;101033.94;4929673;28;20026;-95
2022/10/18 06:42:55;;;;;;;13.02;6.85;;;;;;;6.61;70.21;101030.47;4947657;28;20058;-93
2022/10/18 06:45:20;;;;;;;10.73;6.38;;;;;;;6.62;69.85;101013.41;4945345;28;20125;-93
2022/10/18 06:47:49;;;;;;;9.63;6.72;;;;;;;6.73;70.05;101017.34;4982680;28;20404;-93
2022/10/18 06:50:17;;;;;;;14.73;6.55;;;;;;;6.78;69.88;101020.22;4947915;28;20094;-96
2022/10/18 06:53:07;;;;;;;12.15;5.78;;;;;;;7.10;69.79;101039.25;4932743;28;20047;-94
2022/10/18 06:55:38;;;;;;;15.65;7.38;;;;;;;7.03;68.89;101004.41;4974447;28;20057;-96
2022/10/18 06:58:04;;;;;;;12.50;6.15;;;;;;;7.14;68.39;101007.50;4945566;28;20034;-94
2022/10/18 07:00:30;;;;;;;24.92;14.25;;;;;;;7.28;68.99;100999.28;4937066;28;20037;-96
2022/10/18 07:03:00;;;;;;;9.52;5.50;;;;;;;7.51;68.22;101011.41;4968405;28;20030;-96
2022/10/18 07:05:28;;;;;;;6.15;4.25;;;;;;;7.62;67.95;101007.28;4951388;28;20027;-96
2022/10/18 07:08:05;;;;;;;6.82;4.35;;;;;;;7.93;68.01;101025.38;4950565;28;20043;-95
2022/10/18 07:10:36;;;;;;;10.15;5.40;;;;;;;7.85;67.26;100994.25;4960994;28;20038;-95
2022/10/18 07:13:04;;;;;;;7.82;3.90;;;;;;;8.00;67.06;100999.34;4972910;28;20365;-95
2022/10/18 07:15:37;;;;;;;13.10;4.78;;;;;;;8.25;67.25;101006.69;4934879;28;20121;-95
2022/10/18 07:18:05;;;;;;;6.18;4.00;;;;;;;8.16;66.86;100994.56;4932273;28;20026;-93
2022/10/18 07:20:30;;;;;;;7.50;4.00;;;;;;;8.37;66.34;100986.22;4947083;28;20390;-96
2022/10/18 07:22:56;;;;;;;7.60;4.85;;;;;;;8.39;66.92;100968.03;4931504;28;20092;-95
2022/10/18 07:25:22;;;;;;;9.02;5.18;;;;;;;8.76;66.35;100999.66;4930690;28;20031;-93
2022/10/18 07:28:03;;;;;;;;;;;;;;;;;;;;;
2022/10/18 07:30:32;;;;;;;14.60;7.28;;;;;;;9.14;65.11;100998.78;4959845;29;20094;-96
2022/10/18 07:32:57;;;;;;;7.00;4.10;;;;;;;9.19;64.76;100997.06;4944461;29;20041;-95
2022/10/18 07:35:23;;;;;;;13.35;8.30;;;;;;;9.30;64.51;100991.00;4947995;28;20113;-94
2022/10/18 07:37:48;;;;;;;12.25;7.55;;;;;;;9.54;64.43;100982.31;4948984;28;20007;-94
2022/10/18 07:40:21;;;;;;;13.50;5.55;;;;;;;9.63;64.03;100965.66;4945189;28;20042;-95
2022/10/18 07:42:50;;;;;;;7.30;5.07;;;;;;;9.73;63.53;100970.50;4930377;28;20022;-95
2022/10/18 07:45:15;;;;;;;9.35;4.82;;;;;;;9.91;62.72;100958.94;4939086;28;20045;-96
2022/10/18 07:47:41;;;;;;;10.50;6.60;;;;;;;10.06;62.38;100967.44;4950412;28;20023;-94
2022/10/18 07:50:16;;;;;;;7.72;5.63;;;;;;;10.34;61.78;100962.59;4952360;28;20036;-94
2022/10/18 07:52:41;;;;;;;9.98;5.45;;;;;;;10.40;62.22;100959.81;4926462;29;20066;-94
2022/10/18 07:55:07;;;;;;;7.78;4.80;;;;;;;10.61;62.48;100955.78;4953860;28;20031;-95
2022/10/18 07:57:38;;;;;;;10.43;4.30;;;;;;;10.78;61.22;100963.22;4947498;28;20501;-95
2022/10/18 08:00:04;;;;;;;9.40;3.95;;;;;;;10.94;60.45;100946.38;4964166;28;20015;-95
2022/10/18 08:02:29;;;;;;;6.18;3.75;;;;;;;11.11;59.73;100950.03;4928388;28;20027;-93
2022/10/18 08:04:55;;;;;;;5.50;3.80;;;;;;;11.13;59.79;100934.44;4971033;28;20022;-93
2022/10/18 08:10:24;;;;;;;6.32;3.90;;;;;;;11.47;58.49;100931.16;4915821;29;20107;-94
2022/10/18 08:12:50;;;;;;;4.32;3.22;;;;;;;11.67;57.74;100931.59;4949307;29;20545;-93
2022/10/18 08:15:16;;;;;;;9.38;3.50;;;;;;;11.85;56.82;100945.97;4925266;29;20482;-91
2022/10/18 08:17:43;;;;;;;11.50;9.35;;;;;;;11.91;56.46;100936.97;4924197;29;20034;-90
2022/10/18 08:20:09;;;;;;;18.35;4.93;;;;;;;12.01;56.32;100930.97;4924804;29;20027;-91
2022/10/18 08:22:43;;;;;;;11.70;4.68;;;;;;;12.26;56.68;100931.44;4936591;28;20049;-93
2022/10/18 08:25:08;;;;;;;12.52;4.55;;;;;;;12.30;56.41;100923.69;4947393;28;20470;-91
2022/10/18 08:27:36;;;;;;;6.40;3.85;;;;;;;12.47;55.94;100916.47;4935540;28;20022;-93
2022/10/18 08:30:02;;;;;;;10.85;5.75;;;;;;;12.71;55.96;100925.25;4950546;28;20031;-91
2022/10/18 08:32:28;;;;;;;8.65;4.00;;;;;;;12.76;55.10;100916.38;4943144;28;20370;-91
2022/10/18 08:34:53;;;;;;;8.45;5.90;;;;;;;12.84;55.64;100898.97;4944970;28;20030;-92
2022/10/18 08:37:19;;;;;;;17.25;8.45;;;;;;;13.02;55.41;100906.00;4962380;28;20022;-92
2022/10/18 08:39:44;;;;;;;11.85;6.70;;;;;;;13.24;55.40;100922.28;4962625;28;20515;-94
2022/10/18 08:42:47;;;;;;;12.20;6.53;;;;;;;13.31;54.89;100910.25;4934982;28;20062;-95
2022/10/18 08:45:13;;;;;;;8.77;3.88;;;;;;;13.32;53.95;100887.56;4951053;28;20413;-92
2022/10/18 08:47:43;;;;;;;6.30;3.92;;;;;;;13.52;54.09;100902.44;4937393;28;20050;-95
2022/10/18 08:50:22;;;;;;;7.05;4.03;;;;;;;13.70;53.77;100906.72;4935532;28;20039;-96
2022/10/18 08:52:58;;;;;;;7.72;3.50;;;;;;;13.84;53.80;100908.00;4933646;28;20023;-96
2022/10/18 08:55:35;;;;;;;4.57;3.00;;;;;;;13.78;53.40;100881.09;4950203;28;20023;-95
2022/10/18 08:58:04;;;;;;;5.45;2.95;;;;;;;13.96;52.54;100894.31;4941608;28;20061;-93
2022/10/18 09:00:33;;;;;;;7.78;3.53;;;;;;;14.06;52.34;100893.59;4936756;28;20033;-94
2022/10/18 09:03:17;;;;;;;5.60;3.10;;;;;;;14.28;52.04;100913.34;4934504;28;20054;-94
2022/10/18 09:06:11;;;;;;;4.32;3.00;;;;;;;14.31;51.35;100888.44;4966308;28;20099;-96
2022/10/18 09:09:15;;;;;;;7.82;5.07;;;;;;;14.47;51.46;100889.41;4947944;29;20059;-96
2022/10/18 09:11:46;;;;;;;6.47;3.25;;;;;;;14.45;49.80;100869.88;4873158;29;20151;-96
2022/10/18 09:15:10;;;;;;;6.43;4.38;;;;;;;14.55;49.35;100869.16;4906252;29;20494;-95
2022/10/18 09:18:17;;;;;;;7.25;4.25;;;;;;;14.81;49.70;100877.53;4903174;29;20125;-93
2022/10/18 09:20:52;;;;;;;4.50;2.80;;;;;;;14.88;48.54;100883.53;4889087;29;20029;-94
2022/10/18 09:23:46;;;;;;;5.20;2.28;;;;;;;15.02;47.71;100867.63;4888420;29;20036;-94
2022/10/18 09:26:16;;;;;;;6.88;2.88;;;;;;;15.03;47.87;100866.56;4910424;29;20181;-95
2022/10/18 09:28:59;;;;;;;4.53;2.33;;;;;;;15.16;46.69;100869.63;4917869;28;20038;-95
2022/10/18 09:31:45;;;;;;;3.65;2.55;;;;;;;15.12;46.90;100840.56;4950552;28;20038;-95
2022/10/18 09:34:56;;;;;;;;;;;;;;;;;;;;;
2022/10/18 09:37:28;;;;;;;10.60;3.92;;;;;;;15.22;47.11;100818.13;4957679;28;20061;-94
2022/10/18 09:40:34;;;;;;;5.93;2.60;;;;;;;15.27;45.79;100812.69;4956475;28;20123;-95
2022/10/18 09:43:02;;;;;;;4.68;3.00;;;;;;;15.45;45.89;100825.00;4941829;28;20042;-92
2022/10/18 09:45:36;;;;;;;3.75;2.90;;;;;;;15.56;44.81;100834.81;4947049;28;20019;-93
2022/10/18 09:48:28;;;;;;;3.20;1.92;;;;;;;15.68;43.84;100831.88;4942591;28;20532;-92
2022/10/18 09:50:56;;;;;;;3.37;2.33;;;;;;;15.67;43.91;100831.06;4940463;28;20466;-94
2022/10/18 09:53:52;;;;;;;4.57;2.67;;;;;;;15.71;44.58;100828.66;4961649;28;20809;-94
2022/10/18 09:56:31;;;;;;;3.75;2.63;;;;;;;15.72;42.59;100824.84;4942784;28;20049;-93
2022/10/18 09:58:57;;;;;;;5.30;2.53;;;;;;;15.62;42.23;100803.06;4941089;28;20031;-96
2022/10/18 10:01:27;;;;;;;5.22;1.90;;;;;;;15.61;41.66;100791.41;4936317;28;20099;-93
2022/10/18 10:03:56;;;;;;;3.63;1.85;;;;;;;15.64;41.65;100800.91;4946403;28;20027;-94
2022/10/18 10:06:26;;;;;;;5.72;3.03;;;;;;;15.75;41.96;100794.47;4955762;28;20078;-93
2022/10/18 10:09:05;;;;;;;;;;;;;;;;;;;;;
2022/10/18 10:11:39;;;;;;;3.88;2.17;;;;;;;15.79;41.22;100779.25;4983932;28;20507;-94
2022/10/18 10:14:25;;;;;;;;;;;;;;;;;;;;;
2022/10/18 10:17:25;;;;;;;11.57;6.30;;;;;;;15.87;35.95;100759.69;4946616;28;20030;-93
2022/10/18 10:20:28;;;;;;;3.15;1.90;;;;;;;16.10;35.51;100773.84;4899418;28;20041;-92
2022/10/18 10:26:51;;;;;;;6.15;1.98;;;;;;;16.11;37.49;100759.19;4981680;28;20042;-93
2022/10/18 10:40:15;;;;;;;5.32;2.25;;;;;;;16.31;36.80;100732.03;4856390;29;20505;-93
2022/10/18 10:42:59;;;;;;;3.67;2.00;;;;;;;16.28;35.78;100729.84;4884067;29;20123;-94
2022/10/18 10:45:26;;;;;;;4.45;2.05;;;;;;;16.31;36.21;100715.72;4942143;28;20042;-95
2022/10/18 10:47:53;;;;;;;5.03;1.60;;;;;;;16.34;34.07;100712.44;4964046;28;20019;-95
2022/10/18 10:50:31;;;;;;;3.80;1.90;;;;;;;16.29;35.06;100696.16;4934302;28;20050;-95
2022/10/18 10:52:57;;;;;;;3.30;2.03;;;;;;;16.39;35.37;100687.13;4935993;28;20031;-93
2022/10/18 10:55:27;;;;;;;2.95;1.90;;;;;;;16.59;35.08;100713.47;4951403;28;20130;-95
2022/10/18 10:57:59;;;;;;;3.17;1.80;;;;;;;16.44;34.40;100687.16;4940078;28;20018;-93
2022/10/18 11:00:41;;;;;;;4.15;2.70;;;;;;;16.69;35.12;100702.56;4932799;28;20031;-93
2022/10/18 11:03:18;;;;;;;3.85;2.10;;;;;;;16.63;35.10;100695.53;4955213;28;20022;-93
2022/10/18 11:05:45;;;;;;;2.53;1.60;;;;;;;16.55;35.35;100685.22;4936255;28;21280;-92
2022/10/18 11:08:13;;;;;;;5.10;1.90;;;;;;;16.74;35.92;100699.81;4940547;28;20062;-92
2022/10/18 11:10:49;;;;;;;2.50;1.70;;;;;;;16.74;35.54;100690.84;4958584;28;20048;-93
2022/10/18 11:13:23;;;;;;;6.13;2.72;;;;;;;16.82;34.66;100690.31;4956180;28;20030;-93
2022/10/18 11:15:51;;;;;;;6.03;2.33;;;;;;;16.82;34.85;100700.41;4959094;28;20034;-92
2022/10/18 11:18:37;;;;;;;3.90;1.70;;;;;;;16.87;35.26;100692.19;4948554;28;20026;-91
2022/10/18 11:25:24;;;;;;;5.82;2.92;;;;;;;16.94;35.31;100679.13;4907701;29;20039;-93
2022/10/18 11:28:05;;;;;;;3.42;1.67;;;;;;;16.81;34.86;100657.94;4847252;29;20047;-94
2022/10/18 11:30:36;;;;;;;2.97;1.98;;;;;;;16.98;35.21;100672.03;4929479;28;20026;-96
2022/10/18 11:33:13;;;;;;;3.35;2.05;;;;;;;16.95;35.76;100667.13;4984895;28;20113;-92
2022/10/18 11:35:45;;;;;;;4.03;1.95;;;;;;;16.90;34.92;100648.13;4948840;28;20030;-91
2022/10/18 11:38:13;;;;;;;;;;;;;;;16.93;35.58;100659.28;4932130;28;20489;-94
2022/10/18 11:40:57;;;;;;;4.70;2.20;;;;;;;16.85;35.93;100656.28;4967673;28;19929;-93
2022/10/18 11:43:33;;;;;;;3.13;2.28;;;;;;;16.82;35.94;100640.53;4983254;28;20031;-93
2022/10/18 11:46:25;;;;;;;3.70;2.75;;;;;;;16.74;35.86;100617.41;4931304;28;20101;-94
2022/10/18 11:49:00;;;;;;;2.40;1.52;;;;;;;16.80;35.03;100616.31;4953248;28;20109;-95
2022/10/18 11:51:39;;;;;;;16.38;8.13;;;;;;;16.99;35.51;100641.00;4936157;28;20035;-96
2022/10/18 11:54:20;;;;;;;9.93;4.55;;;;;;;16.98;35.62;100625.78;4967973;28;20057;-96
2022/10/18 11:57:01;;;;;;;4.78;2.88;;;;;;;17.10;35.32;100617.25;4964098;28;20065;-96
2022/10/18 11:59:41;;;;;;;2.90;2.30;;;;;;;17.01;34.86;100602.63;4960479;28;20046;-96
2022/10/18 12:02:34;;;;;;;3.20;1.92;;;;;;;17.17;35.06;100612.34;4933118;28;20042;-94
2022/10/18 12:05:03;;;;;;;3.95;2.15;;;;;;;17.07;34.99;100596.88;4978734;28;20054;-95
2022/10/18 12:07:35;;;;;;;6.45;2.22;;;;;;;17.03;35.44;100587.63;4963313;28;20038;-93
2022/10/18 12:10:14;;;;;;;6.75;2.83;;;;;;;17.15;35.12;100592.75;4947610;28;20055;-94
2022/10/18 12:12:55;;;;;;;2.67;1.73;;;;;;;17.19;34.60;100582.13;4977464;28;20030;-93